sim
Sign-in with your pilot id or email,
or register
Callsign
Passwort

Schedule Details

Flight Number: DLH1991 (1)
Departure: Cologne Bonn Airport (EDDK) at 16:40
Arrival: Munich Airport (EDDM) at 17:45
Route: Lufthansa Passenger Schedule. Enter filed route here before submitting Pirep.

Weather Information
Getting current METAR information for EDDK 222120Z VRB01KT CAVOK 14/09 Q1007 NOSIG
Getting current METAR information for EDDM 222120Z VRB02KT CAVOK 14/14 Q1010 NOSIG

Schedule Frequency

Route Map